Time;durP1;ratioP1;P1;durP2;ratioP2;P2;SDS_P1;SDS_P2;PMS_P1;PMS_P2;Temp;Humidity;BMP_temperature;BMP_pressure;BME280_temperature;BME280_humidity;BME280_pressure;Samples;Min_cycle;Max_cycle;Signal;HPM_P1;HPM_P2
2021/08/25 00:00:13;;;;;;;4.15;3.03;;;;;;;15.31;57.96;102082.28;698035;28;45258;-69
2021/08/25 00:00:34;;;;;;;4.40;3.05;;;;;;;15.30;57.74;102080.63;699237;28;46408;-69
2021/08/25 00:00:57;;;;;;;4.40;2.67;;;;;;;15.30;57.97;102077.91;699623;28;22399;-69
2021/08/25 00:01:18;;;;;;;4.05;2.80;;;;;;;15.29;57.75;102073.47;697594;28;67314;-70
2021/08/25 00:01:39;;;;;;;4.05;2.95;;;;;;;15.27;58.01;102072.81;699343;28;22388;-69
2021/08/25 00:02:00;;;;;;;3.42;2.72;;;;;;;15.25;57.73;102072.97;699977;28;21468;-70
2021/08/25 00:02:21;;;;;;;3.25;2.80;;;;;;;15.26;57.83;102084.69;699121;28;21226;-69
2021/08/25 00:02:43;;;;;;;4.03;2.75;;;;;;;15.23;57.82;102063.28;699368;28;23493;-69
2021/08/25 00:03:05;;;;;;;4.13;2.90;;;;;;;15.24;57.90;102076.72;698780;28;47207;-70
2021/08/25 00:03:26;;;;;;;3.65;2.78;;;;;;;15.23;58.03;102080.44;698777;28;44390;-70
2021/08/25 00:03:47;;;;;;;3.25;2.72;;;;;;;15.22;58.13;102078.78;699953;28;24172;-70
2021/08/25 00:04:09;;;;;;;4.15;2.85;;;;;;;15.21;58.05;102076.22;698766;28;22431;-70
2021/08/25 00:04:30;;;;;;;3.08;2.78;;;;;;;15.21;57.94;102073.50;699583;28;47175;-69
2021/08/25 00:04:51;;;;;;;3.20;2.60;;;;;;;15.18;58.26;102071.97;699648;28;21538;-69
2021/08/25 00:05:13;;;;;;;3.58;2.80;;;;;;;15.18;58.17;102077.41;699743;28;23424;-69
2021/08/25 00:05:35;;;;;;;3.70;2.85;;;;;;;15.08;58.08;102064.00;699042;28;22385;-69
2021/08/25 00:05:57;;;;;;;4.03;2.78;;;;;;;15.14;58.14;102071.47;698912;28;42980;-68
2021/08/25 00:06:18;;;;;;;3.78;2.72;;;;;;;15.15;58.17;102066.88;698282;28;44226;-70
2021/08/25 00:06:39;;;;;;;3.75;2.95;;;;;;;15.16;58.15;102076.75;698443;28;46316;-70
2021/08/25 00:07:02;;;;;;;3.13;2.78;;;;;;;15.16;58.30;102075.88;700276;28;22509;-70
2021/08/25 00:07:26;;;;;;;3.35;2.60;;;;;;;15.16;58.19;102073.16;697222;28;69443;-67
2021/08/25 00:07:48;;;;;;;3.83;2.72;;;;;;;15.14;57.94;102076.06;695670;28;92179;-67
2021/08/25 00:08:10;;;;;;;4.35;2.88;;;;;;;15.13;57.93;102074.38;699199;28;22328;-70
2021/08/25 00:08:31;;;;;;;3.50;2.70;;;;;;;15.11;58.13;102071.81;698622;28;46314;-69
2021/08/25 00:08:52;;;;;;;3.17;2.88;;;;;;;15.10;58.11;102070.13;699851;28;23234;-69
2021/08/25 00:09:13;;;;;;;3.33;2.80;;;;;;;15.09;57.82;102070.28;698181;28;46283;-67
2021/08/25 00:09:34;;;;;;;3.05;2.67;;;;;;;15.07;57.99;102073.19;699611;28;23535;-68
2021/08/25 00:09:59;;;;;;;3.20;2.88;;;;;;;15.09;58.21;102073.00;699876;28;22386;-69
2021/08/25 00:10:20;;;;;;;3.20;2.70;;;;;;;15.07;58.24;102070.47;696451;28;115185;-69
2021/08/25 00:10:41;;;;;;;2.88;2.53;;;;;;;15.07;57.99;102064.19;698648;28;23545;-68
2021/08/25 00:11:04;;;;;;;2.80;2.60;;;;;;;15.04;58.16;102067.25;699800;28;22246;-69
2021/08/25 00:11:25;;;;;;;2.90;2.70;;;;;;;15.06;58.23;102068.78;698585;28;44464;-69
2021/08/25 00:11:46;;;;;;;3.13;2.70;;;;;;;15.03;58.25;102060.97;699380;28;21559;-70
2021/08/25 00:12:08;;;;;;;3.85;2.60;;;;;;;15.05;58.29;102069.78;699268;28;22428;-70
2021/08/25 00:12:31;;;;;;;2.70;2.50;;;;;;;15.06;58.22;102067.91;698253;28;46370;-69
2021/08/25 00:12:52;;;;;;;3.17;2.88;;;;;;;15.04;58.25;102065.38;697601;28;69563;-69
2021/08/25 00:13:13;;;;;;;4.15;2.83;;;;;;;15.05;58.33;102072.53;699746;28;23602;-69
2021/08/25 00:13:34;;;;;;;3.58;2.58;;;;;;;15.04;58.22;102061.81;699375;28;22292;-69
2021/08/25 00:13:56;;;;;;;2.50;2.30;;;;;;;15.04;58.46;102057.22;699779;28;21523;-69
2021/08/25 00:14:17;;;;;;;3.47;2.63;;;;;;;15.06;58.15;102068.78;698762;28;44372;-70
2021/08/25 00:14:39;;;;;;;4.35;2.90;;;;;;;15.05;58.20;102061.63;699602;28;22400;-69
2021/08/25 00:15:00;;;;;;;4.32;3.03;;;;;;;15.07;58.12;102069.63;698660;28;46219;-69
2021/08/25 00:15:22;;;;;;;5.07;3.00;;;;;;;15.05;58.05;102064.34;699167;28;22368;-69
2021/08/25 00:15:43;;;;;;;3.90;3.20;;;;;;;15.05;58.11;102067.06;698524;28;45266;-69
2021/08/25 00:16:04;;;;;;;3.92;3.28;;;;;;;14.99;57.94;102059.59;699602;28;23504;-69
2021/08/25 00:16:25;;;;;;;4.47;3.25;;;;;;;15.03;58.32;102058.25;699731;28;21075;-70
2021/08/25 00:16:47;;;;;;;3.65;3.00;;;;;;;15.02;58.31;102064.72;699608;28;23734;-69
2021/08/25 00:17:09;;;;;;;3.58;2.72;;;;;;;15.01;58.38;102065.72;698626;28;46597;-70
2021/08/25 00:17:30;;;;;;;4.28;3.15;;;;;;;14.94;58.16;102054.69;698178;28;46328;-69
2021/08/25 00:17:51;;;;;;;4.82;3.15;;;;;;;15.00;58.19;102066.75;698094;28;22346;-70
2021/08/25 00:18:13;;;;;;;4.38;2.83;;;;;;;15.01;58.36;102063.00;699170;28;22239;-69
2021/08/25 00:18:34;;;;;;;4.65;2.97;;;;;;;15.01;58.27;102060.28;697847;28;69527;-69
2021/08/25 00:18:55;;;;;;;4.20;2.90;;;;;;;15.01;58.13;102059.44;698885;28;45288;-69
2021/08/25 00:19:16;;;;;;;3.25;2.88;;;;;;;15.02;58.27;102069.31;699397;28;23521;-69
2021/08/25 00:19:38;;;;;;;4.13;2.70;;;;;;;15.01;58.17;102064.88;699296;28;23465;-69
2021/08/25 00:20:01;;;;;;;3.92;2.80;;;;;;;15.03;58.27;102068.25;700946;28;22220;-70
2021/08/25 00:20:22;;;;;;;3.63;3.00;;;;;;;15.02;58.13;102064.72;697681;28;69365;-70
2021/08/25 00:20:43;;;;;;;4.78;2.90;;;;;;;15.04;58.41;102061.81;698939;28;21386;-69
2021/08/25 00:21:04;;;;;;;4.10;2.88;;;;;;;15.06;58.00;102059.75;699269;28;23481;-69
2021/08/25 00:21:26;;;;;;;2.92;2.53;;;;;;;15.05;57.94;102064.34;699160;28;23463;-68
2021/08/25 00:21:47;;;;;;;3.72;2.80;;;;;;;15.06;57.87;102065.19;698633;28;47152;-68
2021/08/25 00:22:11;;;;;;;3.85;2.95;;;;;;;15.06;57.83;102057.91;699372;28;22421;-68
2021/08/25 00:22:32;;;;;;;4.47;2.80;;;;;;;15.09;57.77;102059.41;697839;28;92305;-69
2021/08/25 00:22:54;;;;;;;3.10;2.70;;;;;;;15.09;57.91;102062.13;699599;28;22403;-69
2021/08/25 00:23:15;;;;;;;4.35;2.88;;;;;;;15.09;57.62;102057.56;698172;28;44389;-70
2021/08/25 00:23:36;;;;;;;4.43;2.90;;;;;;;15.10;57.84;102058.41;699233;28;22406;-69
2021/08/25 00:23:57;;;;;;;4.03;3.10;;;;;;;15.11;57.65;102065.53;699107;28;23481;-69
2021/08/25 00:24:18;;;;;;;3.05;2.70;;;;;;;15.10;57.61;102066.56;699136;28;22386;-69
2021/08/25 00:24:41;;;;;;;3.72;2.53;;;;;;;15.11;57.56;102065.53;699036;28;22408;-69
2021/08/25 00:25:02;;;;;;;4.88;2.78;;;;;;;15.10;57.82;102059.22;697885;28;69253;-69
2021/08/25 00:25:24;;;;;;;4.28;2.80;;;;;;;15.10;57.67;102064.69;699274;28;23846;-70
2021/08/25 00:25:45;;;;;;;3.70;2.70;;;;;;;15.10;57.86;102061.94;698440;28;46318;-70
2021/08/25 00:26:07;;;;;;;3.05;2.65;;;;;;;15.10;57.71;102058.41;699745;28;22519;-68
2021/08/25 00:26:28;;;;;;;3.15;2.75;;;;;;;15.08;58.07;102064.00;698916;28;47232;-67
2021/08/25 00:26:49;;;;;;;3.20;2.60;;;;;;;15.06;58.03;102054.31;699263;28;22250;-68
2021/08/25 00:27:10;;;;;;;3.08;2.72;;;;;;;15.04;58.10;102057.22;701285;28;22416;-68
2021/08/25 00:27:32;;;;;;;3.80;2.47;;;;;;;15.00;58.10;102052.28;696090;28;22385;-69
2021/08/25 00:27:53;;;;;;;3.67;2.55;;;;;;;15.01;58.09;102056.72;694855;28;46318;-68
2021/08/25 00:28:14;;;;;;;4.63;2.85;;;;;;;14.96;58.06;102055.34;696825;28;22415;-67
2021/08/25 00:28:36;;;;;;;4.55;3.00;;;;;;;14.96;58.29;102057.22;696510;28;23346;-68
2021/08/25 00:28:57;;;;;;;7.13;3.20;;;;;;;14.94;58.24;102053.84;695441;28;45254;-68
2021/08/25 00:29:19;;;;;;;4.70;3.20;;;;;;;14.91;58.14;102057.75;698423;28;22463;-67
2021/08/25 00:29:41;;;;;;;4.20;3.22;;;;;;;14.88;58.31;102049.94;700962;28;46247;-68
2021/08/25 00:30:03;;;;;;;3.15;2.83;;;;;;;14.87;58.46;102053.66;702274;28;22382;-68
2021/08/25 00:30:30;;;;;;;4.93;2.72;;;;;;;14.84;58.26;102050.47;700125;28;69432;-71
2021/08/25 00:30:52;;;;;;;3.22;2.80;;;;;;;14.81;58.60;102048.97;696690;28;136743;-68
2021/08/25 00:31:13;;;;;;;3.28;2.63;;;;;;;14.79;58.42;102053.69;698416;28;46339;-68
2021/08/25 00:31:34;;;;;;;4.45;2.80;;;;;;;14.76;58.67;102048.59;698421;28;45365;-68
2021/08/25 00:31:55;;;;;;;3.08;2.72;;;;;;;14.75;58.82;102044.22;699713;28;23481;-68
2021/08/25 00:32:17;;;;;;;5.32;2.70;;;;;;;14.73;58.55;102054.38;699244;28;21376;-68
2021/08/25 00:32:39;;;;;;;5.80;2.95;;;;;;;14.71;58.76;102049.13;699049;28;45219;-68
2021/08/25 00:33:00;;;;;;;3.95;2.80;;;;;;;14.68;58.86;102043.19;699464;28;23432;-68
2021/08/25 00:33:21;;;;;;;3.58;2.60;;;;;;;14.66;58.77;102040.63;699800;28;23602;-68
2021/08/25 00:33:43;;;;;;;4.60;2.85;;;;;;;14.66;58.82;102046.06;699508;28;22132;-68
2021/08/25 00:34:04;;;;;;;3.83;2.92;;;;;;;14.65;58.80;102044.38;698094;28;46280;-68
2021/08/25 00:34:27;;;;;;;3.28;2.60;;;;;;;14.61;59.05;102037.59;699266;28;22307;-68
2021/08/25 00:34:49;;;;;;;3.33;2.58;;;;;;;14.63;59.23;102040.97;696756;28;93190;-69
2021/08/25 00:35:11;;;;;;;4.00;2.83;;;;;;;14.62;59.25;102039.28;699145;28;21563;-69
2021/08/25 00:35:32;;;;;;;5.07;2.72;;;;;;;14.59;58.98;102035.03;697619;28;69446;-68
2021/08/25 00:35:53;;;;;;;2.95;2.50;;;;;;;14.62;59.14;102050.16;699583;28;21500;-69
2021/08/25 00:36:14;;;;;;;3.35;2.80;;;;;;;14.63;59.16;102043.69;699728;28;22378;-68
2021/08/25 00:36:37;;;;;;;3.10;2.80;;;;;;;14.63;59.15;102040.97;699583;28;20743;-69
2021/08/25 00:36:58;;;;;;;4.47;2.97;;;;;;;14.61;59.23;102037.59;699319;28;46168;-68
2021/08/25 00:37:21;;;;;;;4.53;3.00;;;;;;;14.64;59.09;102045.41;698537;28;45126;-69
2021/08/25 00:37:42;;;;;;;3.40;3.00;;;;;;;14.63;58.93;102038.25;697847;28;46348;-69
2021/08/25 00:38:04;;;;;;;3.20;2.67;;;;;;;14.62;58.98;102038.44;699781;28;22389;-68
2021/08/25 00:38:25;;;;;;;4.45;3.00;;;;;;;14.58;59.18;102032.47;697413;28;67481;-68
2021/08/25 00:38:46;;;;;;;6.47;2.85;;;;;;;14.62;59.31;102041.16;699363;28;23470;-68
2021/08/25 00:39:07;;;;;;;4.05;2.88;;;;;;;14.62;59.02;102039.28;698758;28;22415;-68
2021/08/25 00:39:29;;;;;;;3.55;2.80;;;;;;;14.63;59.23;102037.44;699661;28;22390;-67
2021/08/25 00:39:50;;;;;;;4.05;2.85;;;;;;;14.63;59.31;102030.09;698697;28;44398;-68
2021/08/25 00:40:13;;;;;;;3.50;2.80;;;;;;;14.64;59.26;102039.97;699822;28;21550;-68
2021/08/25 00:40:34;;;;;;;3.10;2.80;;;;;;;14.64;59.27;102044.53;698147;28;45342;-69
2021/08/25 00:40:56;;;;;;;3.20;2.90;;;;;;;14.65;59.18;102036.22;699299;28;22451;-69
2021/08/25 00:41:17;;;;;;;3.10;2.90;;;;;;;14.66;59.34;102042.53;698537;28;44405;-68
2021/08/25 00:41:38;;;;;;;3.20;2.90;;;;;;;14.65;58.98;102038.94;699668;28;23435;-68
2021/08/25 00:41:59;;;;;;;3.75;3.00;;;;;;;14.65;59.12;102041.66;698928;28;21330;-70
2021/08/25 00:42:21;;;;;;;3.47;2.78;;;;;;;14.65;58.94;102036.22;699389;28;23502;-69
2021/08/25 00:42:42;;;;;;;4.25;2.70;;;;;;;14.63;59.36;102034.72;698282;28;45271;-69
2021/08/25 00:43:05;;;;;;;5.72;2.90;;;;;;;14.62;59.31;102036.56;699417;28;21546;-70
2021/08/25 00:43:26;;;;;;;5.47;3.17;;;;;;;14.61;59.12;102040.31;697799;28;69555;-70
2021/08/25 00:43:47;;;;;;;6.05;3.15;;;;;;;14.59;59.25;102039.59;700523;28;22316;-69
2021/08/25 00:44:09;;;;;;;5.20;3.20;;;;;;;14.59;59.40;102037.72;701076;28;23135;-70
2021/08/25 00:44:30;;;;;;;4.35;3.00;;;;;;;14.58;59.33;102036.03;699644;28;46227;-69
2021/08/25 00:44:51;;;;;;;5.85;3.30;;;;;;;14.56;59.10;102039.94;700787;28;22416;-69
2021/08/25 00:45:12;;;;;;;5.25;3.00;;;;;;;14.55;59.31;102033.66;701259;28;24396;-68
2021/08/25 00:45:35;;;;;;;3.97;3.10;;;;;;;14.53;59.24;102035.69;700568;28;22415;-68
2021/08/25 00:45:56;;;;;;;3.45;2.75;;;;;;;14.51;59.47;102031.44;697957;28;69460;-68
2021/08/25 00:46:18;;;;;;;3.10;2.70;;;;;;;14.50;59.49;102040.59;699008;28;23475;-68
2021/08/25 00:46:40;;;;;;;3.60;2.83;;;;;;;14.47;59.45;102030.94;698885;28;45322;-68
2021/08/25 00:47:02;;;;;;;6.32;3.00;;;;;;;14.45;59.44;102029.41;699024;28;46424;-68
2021/08/25 00:47:23;;;;;;;3.55;3.00;;;;;;;14.41;59.66;102020.75;698021;28;45273;-68
2021/08/25 00:47:44;;;;;;;3.88;3.13;;;;;;;14.42;59.40;102025.19;701487;28;22216;-68
2021/08/25 00:48:06;;;;;;;3.25;2.92;;;;;;;14.39;59.62;102028.25;700454;28;4037;-68
2021/08/25 00:48:28;;;;;;;3.90;2.90;;;;;;;14.39;59.80;102033.69;699747;28;46484;-67
2021/08/25 00:48:49;;;;;;;3.75;2.83;;;;;;;14.36;59.68;102024.00;699498;28;46759;-68
2021/08/25 00:49:10;;;;;;;4.80;3.20;;;;;;;14.35;59.83;102025.00;700888;28;22485;-68
2021/08/25 00:49:31;;;;;;;6.35;3.53;;;;;;;14.35;59.77;102027.72;695969;28;23523;-68
2021/08/25 00:49:53;;;;;;;3.20;2.90;;;;;;;14.34;59.99;102027.88;699610;28;22449;-68
2021/08/25 00:50:14;;;;;;;3.95;2.83;;;;;;;14.33;59.86;102026.22;700980;28;44384;-68
2021/08/25 00:50:35;;;;;;;5.38;3.00;;;;;;;14.28;60.15;102021.28;702279;28;21548;-67
2021/08/25 00:50:57;;;;;;;3.97;3.05;;;;;;;14.32;60.29;102029.94;702020;28;22403;-69
2021/08/25 00:51:18;;;;;;;5.45;2.90;;;;;;;14.30;59.95;102024.66;701945;28;21541;-68
2021/08/25 00:51:40;;;;;;;4.82;3.17;;;;;;;14.31;60.16;102030.94;702749;28;23492;-68
2021/08/25 00:52:01;;;;;;;6.45;3.28;;;;;;;14.30;60.04;102024.66;701126;28;46370;-68
2021/08/25 00:52:23;;;;;;;3.45;2.83;;;;;;;14.30;60.27;102029.25;700725;28;44355;-68
2021/08/25 00:52:44;;;;;;;3.40;3.10;;;;;;;14.28;60.18;102026.72;701434;28;45245;-68
2021/08/25 00:53:06;;;;;;;3.20;2.90;;;;;;;14.26;60.01;102028.72;702147;28;21560;-67
2021/08/25 00:53:28;;;;;;;3.55;2.70;;;;;;;14.26;60.02;102027.91;701644;28;45292;-68
2021/08/25 00:53:50;;;;;;;3.90;2.85;;;;;;;14.24;60.13;102033.50;701809;28;46334;-68
2021/08/25 00:54:12;;;;;;;3.85;2.92;;;;;;;14.23;60.33;102031.78;700988;28;46327;-68
2021/08/25 00:54:33;;;;;;;5.30;3.00;;;;;;;14.24;60.48;102033.50;701355;28;45269;-68
2021/08/25 00:54:55;;;;;;;6.35;3.20;;;;;;;14.23;60.17;102029.94;702671;28;21530;-68
2021/08/25 00:55:16;;;;;;;3.97;2.92;;;;;;;14.22;60.49;102022.81;700933;28;46316;-68
2021/08/25 00:55:38;;;;;;;3.25;2.50;;;;;;;14.23;60.59;102029.94;702024;28;21559;-69
2021/08/25 00:55:59;;;;;;;5.13;2.72;;;;;;;14.24;60.23;102036.22;702030;28;24356;-69
2021/08/25 00:56:21;;;;;;;3.35;2.60;;;;;;;14.24;60.64;102033.50;702398;27;22418;-68
2021/08/25 00:56:44;;;;;;;4.50;2.80;;;;;;;14.23;60.21;102032.66;701537;28;44302;-68
2021/08/25 00:57:06;;;;;;;4.50;3.03;;;;;;;14.23;60.28;102029.94;698639;28;115137;-68
2021/08/25 00:57:28;;;;;;;4.00;3.00;;;;;;;14.24;60.34;102030.78;701353;28;21273;-68
2021/08/25 00:57:50;;;;;;;3.42;2.70;;;;;;;14.24;60.60;102031.63;701372;28;22277;-69
2021/08/25 00:58:12;;;;;;;3.65;2.92;;;;;;;14.23;60.54;102029.06;700617;28;46358;-68
2021/08/25 00:58:34;;;;;;;4.97;2.95;;;;;;;14.24;60.49;102030.78;701210;28;45262;-67
2021/08/25 00:58:55;;;;;;;4.05;3.20;;;;;;;14.22;60.45;102022.81;700379;28;67509;-68
2021/08/25 00:59:17;;;;;;;3.60;3.05;;;;;;;14.23;60.48;102035.38;701888;28;22372;-68
2021/08/25 00:59:39;;;;;;;4.47;2.95;;;;;;;14.24;60.21;102028.91;701231;28;45385;-68
2021/08/25 01:00:01;;;;;;;3.30;2.80;;;;;;;14.27;60.65;102029.59;701406;28;46341;-68
2021/08/25 01:00:22;;;;;;;3.55;2.85;;;;;;;14.26;60.37;102031.44;702101;28;22390;-68
2021/08/25 01:00:46;;;;;;;3.50;2.85;;;;;;;14.26;60.24;102028.72;701760;28;23978;-68
2021/08/25 01:01:11;;;;;;;5.00;2.83;;;;;;;14.28;60.54;102028.56;699405;28;92143;-68
2021/08/25 01:01:39;;;;;;;4.60;2.90;;;;;;;14.30;60.25;102032.81;699626;28;113715;-68
2021/08/25 01:02:10;;;;;;;5.80;3.10;;;;;;;14.29;60.39;102022.97;698717;28;138010;-68
2021/08/25 01:02:39;;;;;;;3.70;3.05;;;;;;;14.31;60.39;102026.38;698927;28;137816;-69
2021/08/25 01:03:06;;;;;;;4.55;2.92;;;;;;;14.31;60.25;102031.81;698860;28;138081;-68
2021/08/25 01:03:30;;;;;;;4.60;3.10;;;;;;;14.33;59.99;102024.34;699494;28;137816;-69
2021/08/25 01:03:54;;;;;;;3.40;2.90;;;;;;;14.34;60.05;102025.16;702006;27;69453;-69
2021/08/25 01:04:19;;;;;;;3.40;2.90;;;;;;;14.34;60.22;102034.19;701790;27;90753;-69
2021/08/25 01:04:43;;;;;;;3.90;3.00;;;;;;;14.35;60.23;102025.00;700330;27;138221;-68
2021/08/25 01:05:06;;;;;;;3.15;2.85;;;;;;;14.37;60.11;102028.41;701230;27;115154;-68
2021/08/25 01:05:29;;;;;;;3.03;2.72;;;;;;;14.37;59.87;102027.53;703334;27;69450;-69
2021/08/25 01:05:51;;;;;;;3.97;2.70;;;;;;;14.36;59.85;102021.28;701459;27;44411;-68
2021/08/25 01:06:14;;;;;;;3.85;2.85;;;;;;;14.36;59.93;102024.00;700739;28;46305;-68
2021/08/25 01:06:36;;;;;;;3.15;2.85;;;;;;;14.36;60.14;102024.00;700592;28;90395;-68
2021/08/25 01:06:57;;;;;;;4.25;2.88;;;;;;;14.36;60.10;102023.16;701774;28;69453;-69
2021/08/25 01:07:21;;;;;;;3.97;3.00;;;;;;;14.35;60.24;102027.72;703225;28;22391;-68
2021/08/25 01:07:44;;;;;;;3.33;3.00;;;;;;;14.37;59.85;102022.09;702448;28;67493;-68
2021/08/25 01:08:06;;;;;;;4.13;2.90;;;;;;;14.37;59.83;102024.81;700123;28;90663;-68
2021/08/25 01:08:28;;;;;;;3.72;3.00;;;;;;;14.33;59.75;102027.03;701537;28;67561;-68
2021/08/25 01:08:49;;;;;;;4.88;2.90;;;;;;;14.36;59.97;102031.31;701352;28;46948;-68
2021/08/25 01:09:11;;;;;;;4.20;2.78;;;;;;;14.36;59.76;102025.88;701839;28;20871;-67
2021/08/25 01:09:32;;;;;;;3.85;2.85;;;;;;;14.29;59.74;102020.25;701837;28;45235;-68
2021/08/25 01:09:54;;;;;;;5.20;2.92;;;;;;;14.32;59.85;102028.06;702304;28;22407;-68
2021/08/25 01:10:29;;;;;;;5.65;2.78;;;;;;;14.32;59.96;102019.91;701462;28;46270;-68
2021/08/25 01:10:50;;;;;;;3.50;2.80;;;;;;;14.32;59.90;102025.34;697806;28;137407;-68
2021/08/25 01:11:11;;;;;;;6.63;3.00;;;;;;;14.30;60.14;102016.53;702212;28;22408;-68
2021/08/25 01:11:34;;;;;;;5.35;2.90;;;;;;;14.31;60.14;102022.78;702309;28;22399;-68
2021/08/25 01:12:00;;;;;;;3.15;2.80;;;;;;;14.31;60.11;102018.22;700719;28;69192;-68
2021/08/25 01:12:21;;;;;;;4.50;2.67;;;;;;;14.30;60.31;102024.66;697634;28;138965;-68
2021/08/25 01:12:43;;;;;;;5.35;2.80;;;;;;;14.30;60.28;102021.13;702352;28;23344;-68
2021/08/25 01:13:06;;;;;;;3.72;2.80;;;;;;;14.28;60.27;102021.28;701363;28;46328;-68
2021/08/25 01:13:27;;;;;;;3.42;2.92;;;;;;;14.28;60.40;102014.97;701736;28;70279;-67
2021/08/25 01:13:48;;;;;;;3.17;2.70;;;;;;;14.28;60.35;102020.41;703523;28;22381;-68
2021/08/25 01:14:09;;;;;;;2.75;2.55;;;;;;;14.27;60.07;102018.72;703994;28;21410;-68
2021/08/25 01:14:31;;;;;;;3.58;2.83;;;;;;;14.24;60.09;102020.75;703462;28;22356;-68
2021/08/25 01:14:52;;;;;;;5.20;2.90;;;;;;;14.23;60.12;102013.63;701865;28;46353;-68
2021/08/25 01:15:13;;;;;;;3.85;2.67;;;;;;;14.24;60.29;102011.75;702872;28;23503;-68
2021/08/25 01:15:37;;;;;;;5.72;2.92;;;;;;;14.23;60.44;102020.91;702030;28;22396;-70
2021/08/25 01:15:59;;;;;;;5.28;2.97;;;;;;;14.21;60.51;102015.66;699281;28;92258;-69
2021/08/25 01:16:21;;;;;;;4.28;3.10;;;;;;;14.21;60.42;102020.25;701282;28;44408;-70
2021/08/25 01:16:43;;;;;;;3.85;2.90;;;;;;;14.17;60.01;102016.16;701625;28;44159;-69
2021/08/25 01:17:05;;;;;;;4.65;3.13;;;;;;;14.16;60.37;102015.31;701791;28;43542;-69
2021/08/25 01:17:27;;;;;;;3.70;2.80;;;;;;;14.13;60.37;102010.22;700888;28;46398;-69
2021/08/25 01:17:50;;;;;;;4.05;2.90;;;;;;;14.11;60.49;102016.88;700868;28;46352;-69
2021/08/25 01:18:13;;;;;;;4.22;3.20;;;;;;;14.09;60.46;102011.59;699063;28;69302;-69
2021/08/25 01:18:34;;;;;;;3.85;2.75;;;;;;;14.10;60.51;102012.44;700784;28;70087;-69
2021/08/25 01:18:57;;;;;;;3.60;2.60;;;;;;;14.09;60.67;102011.59;701882;28;21532;-69
2021/08/25 01:19:19;;;;;;;3.17;2.50;;;;;;;14.04;60.73;102005.81;699932;28;69303;-69
2021/08/25 01:19:45;;;;;;;3.33;2.80;;;;;;;14.09;60.47;102014.31;702397;28;44258;-68
2021/08/25 01:20:10;;;;;;;4.93;2.80;;;;;;;14.10;60.90;102010.56;698358;28;138154;-67
2021/08/25 01:20:33;;;;;;;6.15;3.20;;;;;;;14.06;60.84;102007.34;699205;28;115165;-67
2021/08/25 01:20:56;;;;;;;4.43;2.90;;;;;;;14.10;60.78;102007.00;700209;28;69482;-68
2021/08/25 01:21:17;;;;;;;3.15;2.85;;;;;;;14.09;60.68;102008.03;699871;28;69381;-68
2021/08/25 01:21:39;;;;;;;3.80;2.60;;;;;;;14.08;60.68;102001.75;701602;28;22375;-68
2021/08/25 01:22:01;;;;;;;3.60;2.55;;;;;;;14.08;60.72;102017.22;701215;28;46415;-68
2021/08/25 01:22:23;;;;;;;4.13;2.60;;;;;;;14.08;60.73;102009.06;700695;28;69257;-68
2021/08/25 01:22:45;;;;;;;6.45;2.85;;;;;;;14.07;60.95;102008.19;701747;28;21364;-68
2021/08/25 01:23:11;;;;;;;4.55;2.90;;;;;;;14.06;61.06;102012.78;701562;28;44394;-68
2021/08/25 01:23:33;;;;;;;4.47;2.90;;;;;;;14.06;61.10;102012.78;697358;28;138501;-68
2021/08/25 01:23:55;;;;;;;4.28;2.97;;;;;;;14.06;61.22;102006.50;701030;28;46445;-68
2021/08/25 01:24:19;;;;;;;3.58;2.90;;;;;;;14.05;61.31;102005.63;700872;28;36531;-68
2021/08/25 01:24:40;;;;;;;4.10;3.20;;;;;;;13.99;61.00;101998.16;701880;28;23484;-68
2021/08/25 01:25:02;;;;;;;3.10;2.80;;;;;;;14.02;61.03;102010.56;701628;28;44161;-68
2021/08/25 01:25:25;;;;;;;3.15;2.80;;;;;;;14.01;61.01;102008.88;700022;28;45434;-67
2021/08/25 01:25:47;;;;;;;4.22;2.60;;;;;;;13.99;61.10;102009.03;699485;28;93003;-67
2021/08/25 01:26:08;;;;;;;4.65;3.00;;;;;;;13.99;61.09;102011.75;701171;28;46340;-68
2021/08/25 01:26:30;;;;;;;4.93;2.92;;;;;;;13.98;61.28;102001.91;701899;28;23430;-68
2021/08/25 01:26:53;;;;;;;3.47;2.63;;;;;;;13.95;61.16;101998.66;701431;28;44212;-68
2021/08/25 01:27:15;;;;;;;3.67;2.90;;;;;;;13.94;61.11;101997.00;700367;28;70276;-68
2021/08/25 01:27:38;;;;;;;3.75;3.28;;;;;;;13.95;61.39;102004.09;702042;28;45270;-67
2021/08/25 01:28:02;;;;;;;3.75;3.08;;;;;;;13.95;61.42;101998.66;699521;28;67469;-69
2021/08/25 01:28:31;;;;;;;3.72;2.88;;;;;;;13.91;61.57;102000.03;699383;28;90791;-69
2021/08/25 01:28:56;;;;;;;4.28;3.17;;;;;;;13.93;61.58;102011.56;696219;28;138028;-68
2021/08/25 01:29:22;;;;;;;3.50;3.20;;;;;;;13.92;61.62;101999.00;696981;28;113629;-68
2021/08/25 01:29:43;;;;;;;3.55;2.83;;;;;;;13.92;61.65;101997.16;697245;28;114947;-70
2021/08/25 01:30:06;;;;;;;4.00;2.90;;;;;;;13.93;61.35;102003.44;700646;28;21497;-68
2021/08/25 01:30:31;;;;;;;5.53;3.00;;;;;;;13.91;61.47;102000.03;698104;28;92259;-68
2021/08/25 01:30:53;;;;;;;4.70;3.30;;;;;;;13.91;61.43;101998.16;699456;28;92345;-68
2021/08/25 01:31:14;;;;;;;4.80;3.60;;;;;;;13.93;61.33;102003.44;700785;28;46335;-69
2021/08/25 01:31:36;;;;;;;4.25;3.10;;;;;;;13.92;61.51;101999.00;701958;28;22420;-69
2021/08/25 01:31:58;;;;;;;3.83;3.10;;;;;;;13.92;61.50;101997.16;700448;28;69490;-68
2021/08/25 01:32:19;;;;;;;4.72;3.40;;;;;;;13.93;61.57;101998.00;701327;28;46099;-68
2021/08/25 01:32:41;;;;;;;4.50;3.30;;;;;;;13.96;61.60;102001.22;702304;28;22242;-68
2021/08/25 01:33:03;;;;;;;4.40;3.28;;;;;;;13.97;61.52;102002.94;701976;28;46315;-68
2021/08/25 01:33:27;;;;;;;3.65;3.13;;;;;;;13.99;61.36;102000.88;700498;28;46364;-68
2021/08/25 01:33:48;;;;;;;3.95;3.05;;;;;;;13.99;61.16;101987.31;699551;28;92346;-68
2021/08/25 01:34:09;;;;;;;4.13;3.05;;;;;;;14.02;61.62;101995.13;702194;28;23462;-68
2021/08/25 01:34:31;;;;;;;4.95;3.00;;;;;;;14.05;61.16;101993.94;701813;28;22297;-68
2021/08/25 01:34:53;;;;;;;4.72;3.20;;;;;;;14.05;61.35;102002.91;700161;28;46231;-68
2021/08/25 01:35:14;;;;;;;4.97;3.17;;;;;;;14.05;61.15;101997.50;700978;28;46154;-68
2021/08/25 01:35:37;;;;;;;5.82;3.15;;;;;;;14.06;61.31;102001.91;701789;28;21598;-68
2021/08/25 01:36:01;;;;;;;5.75;3.10;;;;;;;14.05;61.09;101994.78;702561;28;69914;-68
2021/08/25 01:36:22;;;;;;;6.38;3.15;;;;;;;14.08;61.22;101985.44;700376;28;92301;-68
2021/08/25 01:36:43;;;;;;;4.13;3.17;;;;;;;14.10;61.25;101996.97;703262;28;22357;-68
2021/08/25 01:37:05;;;;;;;4.88;3.20;;;;;;;14.13;61.19;101991.22;703026;28;22412;-68
2021/08/25 01:37:26;;;;;;;3.80;3.35;;;;;;;14.14;61.08;101992.09;702374;28;46369;-68
2021/08/25 01:37:48;;;;;;;3.92;3.22;;;;;;;14.12;60.70;101984.09;700746;28;45261;-68
2021/08/25 01:38:18;;;;;;;3.22;2.90;;;;;;;14.15;60.56;101989.19;701532;28;22481;-68
2021/08/25 01:38:46;;;;;;;4.22;2.90;;;;;;;14.16;60.91;101988.16;698990;28;136092;-67
2021/08/25 01:39:07;;;;;;;4.20;2.90;;;;;;;14.16;60.87;101988.16;698198;28;138056;-68
2021/08/25 01:39:28;;;;;;;3.65;2.97;;;;;;;14.15;60.80;101983.75;701721;28;22199;-68
2021/08/25 01:39:51;;;;;;;4.40;3.35;;;;;;;14.17;60.91;101989.00;702272;28;23458;-68
2021/08/25 01:40:13;;;;;;;4.82;3.05;;;;;;;14.15;60.67;101986.47;699595;28;92245;-68
2021/08/25 01:40:35;;;;;;;4.60;3.15;;;;;;;14.18;60.67;101991.53;701293;28;44181;-68
2021/08/25 01:40:56;;;;;;;4.25;3.22;;;;;;;14.17;60.78;101989.88;700977;28;44266;-68
2021/08/25 01:41:19;;;;;;;4.03;2.92;;;;;;;14.17;60.80;101987.16;701091;28;22380;-68
2021/08/25 01:41:40;;;;;;;4.25;2.90;;;;;;;14.16;60.59;101990.03;700687;28;67501;-68
2021/08/25 01:42:02;;;;;;;3.28;2.80;;;;;;;14.13;60.68;101993.94;702355;28;23546;-68
2021/08/25 01:42:23;;;;;;;3.40;2.92;;;;;;;14.12;60.77;101988.66;701595;28;47163;-68
2021/08/25 01:42:47;;;;;;;3.60;3.08;;;;;;;14.12;60.79;101989.53;702403;28;23430;-68
2021/08/25 01:43:08;;;;;;;4.05;3.10;;;;;;;14.11;60.63;101985.09;699217;28;93189;-68
2021/08/25 01:43:30;;;;;;;4.63;3.00;;;;;;;14.11;60.65;101989.69;701992;28;20248;-68
2021/08/25 01:43:52;;;;;;;4.53;3.00;;;;;;;14.10;60.70;101994.28;701043;28;46483;-68